This is the latest recevied weather packets stored in our database for station/object W4CKA. If no packets are shown the sender has not sent any weather packets the latest 10 day(s).
| Time | Temp. | Humidity | Pressure | Rain* | Wind** | Luminosity | Snow |
|---|---|---|---|---|---|---|---|
| 1787861777 | 30° C | 67% | 1056.4 hPa | 0 mm | - | 472 W/m² | - |
| 1787861177 | 29.44° C | 76% | 1056.6 hPa | 0 mm | - | 557 W/m² | - |
| 1787860576 | 28.89° C | 73% | 1056.6 hPa | 0 mm | - | 73 W/m² | - |
| 1787859972 | 28.89° C | 75% | 1056.5 hPa | 0 mm | - | 599 W/m² | - |
| 1787859367 | 29.44° C | 73% | 1056.7 hPa | 0 mm | - | 154 W/m² | - |
| 1787858764 | 32.22° C | 58% | 1056.7 hPa | 0 mm | - | 661 W/m² | - |
| 1787858159 | 31.67° C | 58% | 1056.8 hPa | 0 mm | - | 702 W/m² | - |
| 1787857557 | 31.11° C | 71% | 1056.8 hPa | 0 mm | - | 690 W/m² | - |
| 1787856955 | 30° C | 70% | 1057 hPa | 0 mm | - | 718 W/m² | - |
| 1787856351 | 30° C | 71% | 1057 hPa | 0 mm | - | 218 W/m² | - |
| 1787855746 | 30° C | 74% | 1057.4 hPa | 0 mm | - | 395 W/m² | - |
| 1787855143 | 30° C | 73% | 1057.4 hPa | 0 mm | - | 208 W/m² | - |
| 1787854537 | 27.22° C | 82% | 1057.6 hPa | 0 mm | - | 635 W/m² | - |
| 1787853938 | 27.78° C | 75% | 1057.8 hPa | 0 mm | - | 119 W/m² | - |
| 1787853337 | 28.89° C | 73% | 1057.8 hPa | 0 mm | - | 143 W/m² | - |
| 1787852732 | 29.44° C | 74% | 1058 hPa | 0 mm | - | 620 W/m² | - |
| 1787852131 | 28.33° C | 80% | 1057.9 hPa | 0 mm | - | 713 W/m² | - |
| 1787851526 | 28.33° C | 76% | 1058.1 hPa | 0 mm | - | 188 W/m² | - |
| 1787850922 | 28.89° C | 77% | 1058.2 hPa | 0 mm | - | 218 W/m² | - |
| 1787850319 | 28.89° C | 74% | 1058.1 hPa | 0 mm | - | 601 W/m² | - |
| 1787849714 | 28.89° C | 78% | 1058.1 hPa | 0 mm | - | 651 W/m² | - |
| 1787849114 | 28.33° C | 77% | 1058.5 hPa | 0 mm | - | 182 W/m² | - |
| 1787848513 | 29.44° C | 73% | 1058.5 hPa | 0 mm | - | 270 W/m² | - |
| 1787847908 | 27.78° C | 76% | 1058.6 hPa | 0 mm | - | 608 W/m² | - |
| 1787847304 | 28.33° C | 77% | 1058.7 hPa | 0 mm | - | 489 W/m² | - |
* Rain latest hour (hover to see other rain measurements)
** Current wind speed in m/s (hover to see current wind gust speed)